• Join FlightAware (Why Join?)
  • Login
  • US Flag 
08:21PM EDT


 

Airport Tracker/Info


-or-


 

Live Flight TrackerFlight Track Log ✈ TAM3918 ✈ 09-Nov-2013 ✈ SBSP / CGH - SBRJ / SDU

Flight Track Log - Related Links

Times and Time Zones

All times are in EST time to prevent confusion due to time zone crossing. See the TAM3918 flight status page for this flight to view local times or setup timezone preferences in your user account.

Time Position Orientation Groundspeed Altitude Reporting Facility
EST Latitude Longitude Course Direction KTS MPH feet Rate Location/Type
07:54AM -23.3297 -45.1565 78° East  Level Estimated
07:55AM -23.3094 -45.0568 78° East  Level Estimated
07:56AM -23.2890 -44.9571 77° East  Level Estimated
07:57AM -23.2686 -44.8575 77° East  Level Estimated
07:58AM -23.2481 -44.7579 77° East  Level Estimated
07:59AM -23.2275 -44.6583 77° East  Level Estimated
08:00AM -23.2069 -44.5588 77° East  Level Estimated
08:01AM -23.1862 -44.4593 77° East  Level Estimated
08:02AM -23.1655 -44.3598 77° East  Level Estimated
08:03AM -23.1446 -44.2604 77° East  Level Estimated
08:04AM -23.1238 -44.1610 77° East  Level Estimated
08:05AM -23.1028 -44.0616 77° East  Level Estimated
08:06AM -23.0819 -43.9623 77° East  Level Estimated
08:07AM -23.0608 -43.8629 77° East  Level Estimated
08:08AM -23.0397 -43.7636 77° East  Level Estimated
08:09AM -23.0185 -43.6644 77° East  Level Estimated
08:10AM -22.9972 -43.5652 77° East  Level Estimated
08:11AM -22.9759 -43.4660 77° East  Level Estimated
08:12AM -22.9546 -43.3668 77° East  Level Estimated
08:13AM -22.9331 -43.2677 77° East  Level Estimated
08:14AM -22.9116 -43.1686 77° East  Level Estimated
08:15AM -22.9105 -43.1631 77° East  Level Estimated
08:16AM -22.9105 -43.1631 250° West  Level Estimated
08:17AM -22.9105 -43.1631 250° West  Level Estimated
08:18AM -22.9105 -43.1631 250° West  Level Estimated
08:19AM -22.9105 -43.1631 250° West  Level Estimated
08:20AM -22.9105 -43.1631 250° West  Level Estimated
08:21AM -22.9105 -43.1631 250° West  Level Estimated
08:22AM -22.9105 -43.1631 250° West  Level Estimated
08:23AM -22.9105 -43.1631 250° West  Level Estimated
08:24AM -22.9105 -43.1631 250° West  Level Estimated
08:25AM -22.9105 -43.1631 250° West  Level Estimated
08:26AM -22.9105 -43.1631 250° West  Level Estimated
08:27AM -22.9105 -43.1631 250° West  Level Estimated
08:28AM -22.9105 -43.1631 250° West  Level Estimated
08:29AM -22.9105 -43.1631 250° West  Level Estimated
08:30AM -22.9105 -43.1631 250° West  Level Estimated